Time;durP1;ratioP1;P1;durP2;ratioP2;P2;SDS_P1;SDS_P2;PMS_P1;PMS_P2;Temp;Humidity;BMP_temperature;BMP_pressure;BME280_temperature;BME280_humidity;BME280_pressure;Samples;Min_cycle;Max_cycle;Signal;HPM_P1;HPM_P2
2021/03/04 00:00:43;;;;;;;52.45;31.07;;;;;;;0.60;79.58;99445.38;1759220;80;21084;-72
2021/03/04 00:03:12;;;;;;;54.35;30.27;;;;;;;0.57;79.84;99450.56;1733672;80;21033;-71
2021/03/04 00:05:39;;;;;;;52.17;30.35;;;;;;;0.58;79.84;99439.40;1741216;81;21052;-72
2021/03/04 00:08:07;;;;;;;55.40;31.12;;;;;;;0.59;79.97;99438.55;1759532;80;22310;-71
2021/03/04 00:10:35;;;;;;;55.23;32.53;;;;;;;0.60;79.93;99432.53;1720638;81;21411;-72
2021/03/04 00:13:02;;;;;;;57.17;33.00;;;;;;;0.60;79.91;99432.53;1763074;80;21162;-72
2021/03/04 00:15:33;;;;;;;54.13;32.67;;;;;;;0.59;79.91;99423.14;1759299;80;21076;-71
2021/03/04 00:18:00;;;;;;;54.67;31.80;;;;;;;0.60;79.91;99423.98;1763328;80;21135;-72
2021/03/04 00:20:32;;;;;;;53.92;30.00;;;;;;;0.58;79.93;99420.13;1759862;80;21036;-71
2021/03/04 00:23:01;;;;;;;55.35;32.53;;;;;;;0.57;79.94;99409.45;1728743;81;21198;-71
2021/03/04 00:25:32;;;;;;;54.48;29.82;;;;;;;0.56;79.98;99417.16;1757178;80;21191;-71
2021/03/04 00:27:59;;;;;;;55.23;31.30;;;;;;;0.54;80.05;99406.92;1757497;80;21626;-72
2021/03/04 00:30:26;;;;;;;58.70;32.25;;;;;;;0.54;80.07;99406.92;1753593;80;21068;-71
2021/03/04 00:32:54;;;;;;;55.58;31.45;;;;;;;0.54;80.07;99399.21;1739818;81;21057;-71
2021/03/04 00:35:21;;;;;;;58.30;33.53;;;;;;;0.51;80.05;99392.83;1740721;81;21614;-71
2021/03/04 00:37:48;;;;;;;53.90;32.50;;;;;;;0.46;80.02;99388.17;1738452;81;21021;-72
2021/03/04 00:40:19;;;;;;;55.83;32.63;;;;;;;0.43;80.10;99385.64;1737589;81;20987;-72
2021/03/04 00:42:46;;;;;;;54.85;31.73;;;;;;;0.40;80.18;99380.55;1759797;80;21645;-71
2021/03/04 00:45:22;;;;;;;52.85;31.82;;;;;;;0.39;80.25;99369.42;1740512;81;21100;-72
2021/03/04 00:47:49;;;;;;;57.55;33.08;;;;;;;0.42;80.44;99371.08;1742248;81;21211;-71
2021/03/04 00:50:18;;;;;;;60.23;34.65;;;;;;;0.41;80.46;99359.12;1728294;81;25756;-72
2021/03/04 00:52:45;;;;;;;62.48;34.45;;;;;;;0.42;80.54;99355.67;1719669;82;21183;-71
2021/03/04 00:55:13;;;;;;;57.08;33.95;;;;;;;0.44;80.54;99348.80;1695727;83;21061;-71
2021/03/04 00:57:40;;;;;;;57.93;34.73;;;;;;;0.45;80.62;99346.67;1698645;83;21080;-71
2021/03/04 01:00:09;;;;;;;55.52;33.92;;;;;;;0.48;80.64;99345.34;1707157;83;21207;-71
2021/03/04 01:02:36;;;;;;;57.25;32.53;;;;;;;0.49;80.63;99341.89;1726388;81;21056;-71
2021/03/04 01:05:05;;;;;;;57.30;33.05;;;;;;;0.51;80.71;99349.16;1727509;81;21086;-72
2021/03/04 01:07:33;;;;;;;55.55;32.53;;;;;;;0.51;80.74;99340.16;1732451;81;21076;-71
2021/03/04 01:10:00;;;;;;;57.38;33.55;;;;;;;0.50;80.78;99343.58;1732122;81;21041;-71
2021/03/04 01:12:27;;;;;;;51.90;31.82;;;;;;;0.51;80.78;99345.30;1712183;83;22126;-71
2021/03/04 01:14:54;;;;;;;58.02;34.05;;;;;;;0.52;80.90;99339.28;1711792;83;21100;-71
2021/03/04 01:17:22;;;;;;;62.40;33.08;;;;;;;0.57;81.18;99345.22;1710161;83;21089;-71
2021/03/04 01:19:49;;;;;;;59.27;33.73;;;;;;;0.65;81.39;99351.11;1717529;82;21174;-71
2021/03/04 01:22:16;;;;;;;52.88;34.15;;;;;;;0.75;81.52;99351.83;1715314;82;21167;-71
2021/03/04 01:24:43;;;;;;;59.08;36.13;;;;;;;0.86;81.68;99341.41;1713503;82;21139;-71
2021/03/04 01:27:11;;;;;;;66.20;41.23;;;;;;;1.00;82.34;99342.05;1717719;82;20984;-71
2021/03/04 01:29:38;;;;;;;64.58;40.60;;;;;;;1.13;82.07;99341.89;1714017;82;21076;-70
2021/03/04 01:32:06;;;;;;;70.50;43.02;;;;;;;1.23;82.87;99330.57;1717400;82;21100;-71
2021/03/04 01:34:33;;;;;;;72.20;44.65;;;;;;;1.30;82.21;99332.19;1720575;82;21631;-71
2021/03/04 01:37:00;;;;;;;70.22;42.70;;;;;;;1.35;81.81;99322.68;1719579;82;22387;-71
2021/03/04 01:39:27;;;;;;;78.25;46.35;;;;;;;1.39;82.22;99324.76;1720751;82;21654;-71
2021/03/04 01:41:56;;;;;;;73.75;42.53;;;;;;;1.38;82.05;99314.91;1718775;82;21022;-71
2021/03/04 01:44:23;;;;;;;65.32;39.60;;;;;;;1.39;82.49;99316.59;1725044;81;21638;-71
2021/03/04 01:46:50;;;;;;;72.42;39.33;;;;;;;1.37;83.02;99313.19;1725423;81;21040;-71
2021/03/04 01:49:17;;;;;;;63.60;40.52;;;;;;;1.29;82.41;99310.77;1733964;80;21196;-71
2021/03/04 01:51:45;;;;;;;64.80;39.95;;;;;;;1.24;82.52;99310.43;1744829;81;21633;-71
2021/03/04 01:54:12;;;;;;;74.32;41.60;;;;;;;1.17;82.18;99312.67;1761082;80;21621;-71
2021/03/04 01:56:39;;;;;;;73.28;43.73;;;;;;;1.13;82.10;99304.61;1723372;81;21062;-71
2021/03/04 01:59:06;;;;;;;72.90;42.58;;;;;;;1.16;82.06;99309.26;1751270;81;21047;-70
2021/03/04 02:01:34;;;;;;;75.22;42.73;;;;;;;1.16;82.18;99316.13;1749688;81;21212;-71
2021/03/04 02:04:02;;;;;;;64.77;37.65;;;;;;;1.10;82.54;99329.48;1753090;81;21096;-71
2021/03/04 02:06:49;;;;;;;58.33;36.13;;;;;;;0.83;82.98;99319.16;1748308;81;21076;-70
2021/03/04 02:09:20;;;;;;;55.17;32.70;;;;;;;0.83;82.98;99319.16;1744639;81;21211;-71
2021/03/04 02:12:11;;;;;;;53.75;31.02;;;;;;;0.85;84.95;99335.42;1742636;81;21041;-71
2021/03/04 02:14:51;;;;;;;44.93;25.48;;;;;;;0.75;82.84;99338.13;1747851;81;21589;-71
2021/03/04 02:17:21;;;;;;;40.48;26.65;;;;;;;0.62;83.42;99330.60;1750205;81;21005;-71
2021/03/04 02:19:59;;;;;;;42.65;26.70;;;;;;;0.51;83.31;99332.46;1744573;81;21183;-71
2021/03/04 02:25:56;;;;;;;36.95;23.47;;;;;;;0.30;83.40;99348.97;1681789;84;21012;-70
2021/03/04 02:28:26;;;;;;;40.92;26.82;;;;;;;0.15;84.59;99357.70;1646574;85;21216;-72
2021/03/04 02:30:55;;;;;;;37.20;24.10;;;;;;;0.03;83.69;99352.71;1648335;84;21439;-71
2021/03/04 02:33:25;;;;;;;38.55;25.72;;;;;;;-0.02;84.04;99346.77;1716612;83;21076;-71
2021/03/04 02:35:55;;;;;;;33.08;19.77;;;;;;;-0.08;83.89;99363.08;1712333;82;21180;-70
2021/03/04 02:38:23;;;;;;;23.55;16.05;;;;;;;-0.14;85.25;99354.16;1713391;82;21630;-71
2021/03/04 02:40:53;;;;;;;19.07;13.90;;;;;;;-0.23;86.26;99361.48;1714340;82;22146;-71
2021/03/04 02:43:24;;;;;;;24.77;19.12;;;;;;;-0.33;85.96;99363.74;1718047;82;20987;-71
2021/03/04 02:45:54;;;;;;;20.12;14.13;;;;;;;-0.44;85.39;99366.83;1712197;82;21169;-70
2021/03/04 02:48:22;;;;;;;20.52;16.82;;;;;;;-0.53;86.61;99372.05;1686473;83;21034;-71
2021/03/04 02:50:53;;;;;;;21.33;17.20;;;;;;;-0.63;85.84;99365.27;1684466;83;21634;-70
2021/03/04 06:31:06;;;;;;;4.25;3.75;;;;;;;-0.78;86.39;99390.16;1645744;84;21265;-73
2021/03/04 06:33:37;;;;;;;4.25;3.67;;;;;;;-0.80;86.32;99393.59;1655863;84;21163;-73
2021/03/04 06:36:16;;;;;;;3.75;3.40;;;;;;;-0.80;86.27;99384.19;1658079;84;21119;-72
2021/03/04 06:38:55;;;;;;;5.03;3.77;;;;;;;-0.79;86.17;99389.73;1679227;83;21494;-72
2021/03/04 06:41:24;;;;;;;3.98;3.47;;;;;;;-0.79;86.09;99396.13;1664231;83;21224;-73
2021/03/04 06:44:03;;;;;;;5.20;3.85;;;;;;;-0.75;86.16;99397.83;1661925;82;21421;-73
2021/03/04 06:46:46;;;;;;;5.92;4.28;;;;;;;-0.66;86.08;99388.38;1829437;75;22879;-72
2021/03/04 06:49:14;;;;;;;5.37;4.22;;;;;;;-0.69;85.92;99402.91;1798187;77;21789;-74
2021/03/04 06:51:45;;;;;;;4.28;3.80;;;;;;;-0.64;85.98;99402.02;1796100;78;22124;-72
2021/03/04 06:54:23;;;;;;;5.58;4.60;;;;;;;-0.57;85.91;99402.41;1796272;78;21056;-73
2021/03/04 06:56:50;;;;;;;5.37;4.03;;;;;;;-0.52;85.82;99407.08;1799418;78;21216;-73
2021/03/04 06:59:17;;;;;;;3.50;3.20;;;;;;;-0.51;85.72;99410.05;1796039;78;21084;-77
2021/03/04 07:01:44;;;;;;;3.08;2.77;;;;;;;-0.50;85.67;99411.34;1801183;78;21212;-73
2021/03/04 07:04:16;;;;;;;3.58;3.05;;;;;;;-0.51;85.63;99405.77;1803069;77;21256;-77
2021/03/04 07:06:46;;;;;;;3.95;3.20;;;;;;;-0.48;85.61;99402.33;1801656;78;21076;-73
2021/03/04 07:09:15;;;;;;;2.70;2.37;;;;;;;-0.50;85.54;99396.38;1800118;78;21438;-72
2021/03/04 07:11:44;;;;;;;3.62;3.10;;;;;;;-0.48;85.65;99390.78;1797797;78;21165;-79
2021/03/04 07:14:13;;;;;;;3.62;3.17;;;;;;;-0.49;85.52;99407.05;1797037;78;21191;-73
2021/03/04 07:16:45;;;;;;;3.95;3.47;;;;;;;-0.49;85.54;99402.77;1797550;78;21195;-74
2021/03/04 07:19:16;;;;;;;2.85;2.55;;;;;;;-0.47;85.51;99405.33;1800976;77;21677;-73
2021/03/04 07:21:49;;;;;;;3.87;2.80;;;;;;;-0.46;85.54;99407.02;1803732;78;21123;-80
2021/03/04 07:24:16;;;;;;;3.70;3.10;;;;;;;-0.45;85.48;99398.45;1795562;78;21230;-77
2021/03/04 07:26:43;;;;;;;3.12;2.50;;;;;;;-0.44;85.54;99405.31;1802332;78;21208;-73
2021/03/04 07:29:12;;;;;;;7.55;3.58;;;;;;;-0.38;85.62;99410.38;1796950;77;21158;-73
2021/03/04 07:31:45;;;;;;;5.75;3.15;;;;;;;-0.31;85.63;99404.35;1801177;78;21228;-74
2021/03/04 07:34:14;;;;;;;3.47;3.15;;;;;;;-0.24;85.56;99399.57;1800015;78;21672;-82
2021/03/04 07:36:49;;;;;;;3.95;3.30;;;;;;;-0.16;85.57;99394.81;1798128;77;21203;-77
2021/03/04 07:39:29;;;;;;;4.17;3.40;;;;;;;-0.09;85.62;99399.02;1803078;78;21134;-73
2021/03/04 07:41:57;;;;;;;4.20;3.77;;;;;;;-0.03;85.50;99401.52;1772192;78;21484;-74
2021/03/04 07:44:30;;;;;;;4.53;2.80;;;;;;;0.01;85.50;99405.77;1721966;81;21650;-73
2021/03/04 07:47:03;;;;;;;5.12;3.25;;;;;;;-0.01;85.37;99408.77;1746544;80;22550;-73
2021/03/04 07:49:45;;;;;;;2.72;2.52;;;;;;;-0.07;85.29;99394.72;1764447;80;21256;-73
2021/03/04 07:52:23;;;;;;;4.10;2.70;;;;;;;-0.04;85.42;99399.83;1743851;80;21228;-73
2021/03/04 07:55:08;;;;;;;3.22;2.92;;;;;;;0.16;85.70;99391.92;1827524;75;22988;-73
2021/03/04 07:57:46;;;;;;;;;;;;;;;0.19;85.47;99397.86;1807951;78;20993;-75
2021/03/04 08:00:16;;;;;;;4.15;2.75;;;;;;;0.27;85.42;99389.25;1800191;78;21181;-75
2021/03/04 08:02:45;;;;;;;3.65;3.35;;;;;;;0.36;85.42;99389.14;1797101;78;21083;-75
2021/03/04 08:05:34;;;;;;;6.35;3.20;;;;;;;0.42;85.32;99396.77;1802628;78;21030;-74
2021/03/04 08:08:17;;;;;;;4.40;3.60;;;;;;;0.55;85.49;99389.78;1752277;80;21068;-74
2021/03/04 08:10:54;;;;;;;4.12;3.35;;;;;;;0.70;85.28;99383.59;1767726;79;21695;-75
2021/03/04 08:13:31;;;;;;;4.15;3.62;;;;;;;0.85;85.36;99397.55;1768451;80;21640;-73
2021/03/04 08:15:58;;;;;;;3.50;3.20;;;;;;;0.98;85.07;99401.67;1759970;79;21059;-74
2021/03/04 08:18:26;;;;;;;4.22;3.42;;;;;;;1.00;84.64;99397.77;1762546;80;24574;-74
2021/03/04 08:21:04;;;;;;;3.58;2.80;;;;;;;1.09;84.96;99394.66;1760931;79;21201;-74
2021/03/04 08:23:31;;;;;;;;;;;;;;;1.30;85.17;99392.19;1766483;80;21562;-74
2021/03/04 08:26:01;;;;;;;4.00;3.22;;;;;;;1.46;85.02;99405.69;1742410;81;21303;-73
2021/03/04 08:28:30;;;;;;;4.00;3.17;;;;;;;1.50;84.04;99407.32;1739625;81;21247;-82
2021/03/04 08:31:07;;;;;;;4.15;3.30;;;;;;;1.33;84.03;99396.44;1741341;80;21155;-76
2021/03/04 08:33:34;;;;;;;;;;;;;;;1.34;84.04;99397.72;1767340;80;21693;-74
2021/03/04 08:36:01;;;;;;;4.80;3.77;;;;;;;1.29;83.91;99390.95;1745343;80;20225;-74
2021/03/04 08:38:40;;;;;;;3.95;3.45;;;;;;;1.27;84.25;99389.67;1768044;79;21299;-73
2021/03/04 08:41:07;;;;;;;3.87;3.47;;;;;;;1.29;83.83;99387.93;1766201;79;21190;-76
2021/03/04 08:43:34;;;;;;;4.25;3.02;;;;;;;1.23;83.64;99391.02;1730002;81;22719;-77
2021/03/04 08:46:04;;;;;;;5.78;3.65;;;;;;;1.21;84.01;99386.34;1762468;79;21254;-76
2021/03/04 08:48:32;;;;;;;3.75;3.35;;;;;;;1.20;84.27;99374.34;1763904;79;21065;-74
2021/03/04 08:51:06;;;;;;;3.52;3.22;;;;;;;1.26;84.18;99381.96;1763758;79;22195;-76
2021/03/04 08:53:34;;;;;;;3.75;3.45;;;;;;;1.33;83.99;99377.16;1763829;80;21271;-68
2021/03/04 08:56:04;;;;;;;4.95;3.90;;;;;;;1.32;83.27;99399.45;1768384;79;21032;-72
2021/03/04 08:58:44;;;;;;;3.90;3.50;;;;;;;1.27;83.58;99391.39;1743423;81;21186;-72
2021/03/04 09:01:13;;;;;;;5.58;4.33;;;;;;;1.27;83.70;99396.54;1740856;81;21175;-75
2021/03/04 09:03:43;;;;;;;7.25;4.90;;;;;;;1.26;83.81;99384.53;1763054;79;21151;-72
2021/03/04 09:06:13;;;;;;;6.28;5.00;;;;;;;1.47;84.23;99385.95;1746822;80;21048;-72
2021/03/04 09:08:49;;;;;;;5.65;4.28;;;;;;;1.71;84.51;99377.83;1738395;80;21208;-74
2021/03/04 09:11:33;;;;;;;8.35;5.08;;;;;;;1.79;83.82;99380.25;1741477;80;21669;-74
2021/03/04 09:14:08;;;;;;;5.62;4.72;;;;;;;1.93;83.92;99379.61;1764256;80;21622;-72
2021/03/04 09:16:51;;;;;;;5.15;4.37;;;;;;;2.12;83.88;99381.39;1753297;80;21433;-78
2021/03/04 09:19:30;;;;;;;5.22;3.90;;;;;;;2.15;83.30;99376.63;1738672;81;21204;-75
2021/03/04 09:22:00;;;;;;;6.22;4.97;;;;;;;1.94;81.08;99395.45;1763035;80;21195;-79
2021/03/04 09:24:28;;;;;;;6.30;4.70;;;;;;;1.85;82.94;99377.60;1767977;80;21166;-72
2021/03/04 09:27:00;;;;;;;4.85;3.42;;;;;;;1.98;83.49;99380.34;1746945;81;21171;-71
2021/03/04 09:29:27;;;;;;;5.92;3.85;;;;;;;1.98;82.63;99384.21;1728440;80;21220;-73
2021/03/04 09:31:55;;;;;;;7.35;4.70;;;;;;;1.92;82.47;99376.59;1750910;80;21094;-72
2021/03/04 09:34:42;;;;;;;5.78;3.87;;;;;;;1.82;82.72;99382.80;1751144;80;22492;-72
2021/03/04 09:37:17;;;;;;;4.62;4.10;;;;;;;1.78;82.62;99387.58;1743668;80;21530;-72
2021/03/04 09:39:50;;;;;;;5.50;4.20;;;;;;;1.74;82.99;99383.37;1746110;80;21130;-72
2021/03/04 09:42:24;;;;;;;5.42;4.40;;;;;;;1.67;82.46;99385.63;1729223;80;22034;-73
2021/03/04 09:45:05;;;;;;;7.00;4.95;;;;;;;1.63;82.76;99386.56;1800610;78;22960;-71
2021/03/04 09:47:35;;;;;;;7.40;4.97;;;;;;;1.52;82.62;99390.14;1749171;80;21062;-70
2021/03/04 09:50:19;;;;;;;7.55;4.78;;;;;;;1.39;82.58;99401.48;1767814;79;21223;-74
2021/03/04 09:53:09;;;;;;;5.75;4.62;;;;;;;1.37;83.26;99400.66;1687363;83;21651;-72
2021/03/04 09:55:40;;;;;;;7.62;4.95;;;;;;;1.25;82.80;99405.99;1715526;82;21257;-72
2021/03/04 09:58:22;;;;;;;5.55;4.35;;;;;;;1.14;82.96;99402.72;1717581;82;21187;-73
2021/03/04 10:01:00;;;;;;;6.85;4.78;;;;;;;1.14;83.04;99397.58;1716805;82;21174;-72
2021/03/04 10:03:38;;;;;;;5.45;3.85;;;;;;;1.13;83.30;99404.45;1722074;82;21279;-71
2021/03/04 10:06:29;;;;;;;6.37;4.50;;;;;;;1.03;82.98;99406.28;1712982;82;26590;-72
2021/03/04 10:08:56;;;;;;;5.53;4.90;;;;;;;0.99;83.21;99409.78;1711427;82;21086;-72
2021/03/04 10:11:25;;;;;;;6.10;5.17;;;;;;;0.97;83.57;99408.09;1712591;82;22353;-71
2021/03/04 10:13:52;;;;;;;7.03;5.00;;;;;;;0.97;83.55;99410.23;1671306;84;21247;-71
2021/03/04 10:16:19;;;;;;;6.75;5.28;;;;;;;1.00;83.65;99405.48;1715896;82;21417;-71
2021/03/04 10:18:49;;;;;;;8.00;5.33;;;;;;;1.04;83.67;99410.58;1716420;82;21187;-71
2021/03/04 10:21:18;;;;;;;9.90;4.92;;;;;;;1.07;83.61;99405.39;1695169;82;21218;-71
2021/03/04 10:23:49;;;;;;;4.65;3.95;;;;;;;1.09;83.60;99421.66;1709691;82;21210;-71
2021/03/04 10:26:16;;;;;;;6.78;5.17;;;;;;;0.99;83.28;99411.06;1713266;82;21244;-72
2021/03/04 10:28:43;;;;;;;9.75;4.80;;;;;;;0.94;83.66;99421.84;1714598;82;21256;-72
2021/03/04 10:31:12;;;;;;;7.15;4.70;;;;;;;0.95;83.84;99411.96;1716188;82;21143;-76
2021/03/04 10:33:39;;;;;;;7.70;4.72;;;;;;;1.00;83.90;99411.47;1715223;82;21183;-74
2021/03/04 10:36:07;;;;;;;5.50;4.87;;;;;;;0.95;83.84;99419.67;1714154;82;21189;-80
2021/03/04 10:38:34;;;;;;;5.37;4.78;;;;;;;0.90;83.89;99417.62;1712082;82;21127;-73
2021/03/04 10:41:02;;;;;;;7.80;4.85;;;;;;;0.87;83.99;99421.08;1711327;82;22442;-77
2021/03/04 10:43:28;;;;;;;7.53;5.70;;;;;;;0.86;84.14;99418.52;1710561;82;21235;-77
2021/03/04 10:45:55;;;;;;;6.67;4.92;;;;;;;0.96;84.35;99418.82;1710495;82;21249;-79
2021/03/04 10:48:22;;;;;;;6.10;4.50;;;;;;;1.00;84.24;99424.33;1716831;82;21223;-75
2021/03/04 10:50:50;;;;;;;6.37;4.87;;;;;;;1.18;84.51;99425.81;1714510;82;21713;-73
2021/03/04 10:53:17;;;;;;;5.67;4.03;;;;;;;1.30;84.21;99429.93;1714210;82;21247;-75
2021/03/04 10:55:44;;;;;;;5.60;4.12;;;;;;;1.25;83.86;99434.28;1715001;82;21258;-73
2021/03/04 10:58:11;;;;;;;5.35;4.25;;;;;;;1.22;83.97;99436.91;1714458;82;21239;-73
2021/03/04 11:00:38;;;;;;;5.50;3.87;;;;;;;1.32;84.21;99432.05;1713525;82;21224;-73
2021/03/04 11:03:05;;;;;;;6.05;4.10;;;;;;;1.34;83.99;99437.59;1708678;82;21199;-73
2021/03/04 11:05:32;;;;;;;7.22;4.72;;;;;;;1.29;84.02;99440.66;1711554;82;21274;-73
2021/03/04 11:07:59;;;;;;;6.40;4.20;;;;;;;1.25;84.20;99442.00;1700506;82;21232;-68
2021/03/04 11:10:26;;;;;;;6.47;4.37;;;;;;;1.27;84.31;99445.41;1697125;83;21267;-70
2021/03/04 11:12:54;;;;;;;7.83;3.90;;;;;;;1.26;84.40;99441.12;1677320;83;21243;-72
2021/03/04 11:15:22;;;;;;;4.83;3.77;;;;;;;1.28;84.34;99448.38;1700717;83;21295;-77
2021/03/04 11:17:49;;;;;;;5.15;3.65;;;;;;;1.33;84.44;99444.03;1673979;83;21229;-74
2021/03/04 11:20:16;;;;;;;4.80;3.62;;;;;;;1.31;84.33;99441.91;1688622;83;21026;-72
2021/03/04 11:22:44;;;;;;;3.72;3.42;;;;;;;1.29;84.38;99441.11;1693465;83;26817;-76
2021/03/04 11:25:12;;;;;;;4.47;3.33;;;;;;;1.34;84.47;99440.58;1695580;83;21694;-76
2021/03/04 11:27:39;;;;;;;5.17;3.92;;;;;;;1.35;84.64;99443.58;1691722;83;21238;-76
2021/03/04 11:30:08;;;;;;;4.37;3.50;;;;;;;1.31;84.77;99447.05;1694045;83;21310;-76
2021/03/04 11:32:35;;;;;;;3.92;3.17;;;;;;;1.24;84.58;99441.59;1694120;83;21648;-78
2021/03/04 11:35:03;;;;;;;4.72;3.80;;;;;;;1.14;84.98;99438.73;1693778;83;21250;-73
2021/03/04 11:37:31;;;;;;;3.92;3.02;;;;;;;1.11;84.90;99437.89;1693731;83;21279;-72
2021/03/04 11:39:59;;;;;;;5.42;3.00;;;;;;;1.10;85.23;99443.91;1695712;83;21217;-72
2021/03/04 11:42:26;;;;;;;5.05;3.15;;;;;;;1.01;85.11;99436.33;1693898;83;21276;-71
2021/03/04 11:44:53;;;;;;;6.00;2.83;;;;;;;0.99;85.15;99443.20;1693909;83;21269;-73
2021/03/04 11:47:20;;;;;;;5.80;3.30;;;;;;;0.96;85.20;99444.53;1692748;83;21167;-71
2021/03/04 11:49:47;;;;;;;6.92;4.37;;;;;;;0.91;85.03;99450.16;1694042;82;21875;-72
2021/03/04 11:52:14;;;;;;;6.28;3.72;;;;;;;0.89;85.16;99441.61;1694915;83;21192;-70
2021/03/04 11:54:41;;;;;;;5.30;4.20;;;;;;;0.87;85.05;99442.08;1695654;83;21687;-71
2021/03/04 11:57:09;;;;;;;7.78;4.70;;;;;;;0.86;85.09;99438.64;1689882;83;21706;-70
2021/03/04 11:59:35;;;;;;;6.00;3.92;;;;;;;0.84;85.14;99447.23;1697338;83;21143;-71
2021/03/04 12:02:03;;;;;;;5.08;4.15;;;;;;;0.82;85.19;99445.14;1696182;83;21565;-72
2021/03/04 12:04:30;;;;;;;5.65;4.05;;;;;;;0.79;85.24;99452.89;1694022;82;21204;-72
2021/03/04 12:06:58;;;;;;;8.18;5.75;;;;;;;0.81;85.26;99451.13;1698500;83;21256;-70
2021/03/04 12:09:46;;;;;;;7.35;5.33;;;;;;;0.82;85.16;99451.56;1720087;82;21672;-69
2021/03/04 12:12:13;;;;;;;9.90;6.83;;;;;;;0.82;85.29;99450.28;1711693;82;21272;-69
2021/03/04 12:14:40;;;;;;;8.08;5.65;;;;;;;0.77;85.03;99461.05;1709225;82;21228;-69
2021/03/04 12:17:07;;;;;;;6.62;4.28;;;;;;;0.73;85.46;99455.50;1715624;82;21169;-69
2021/03/04 12:19:34;;;;;;;7.22;3.85;;;;;;;0.63;85.38;99459.91;1709318;82;21277;-69
2021/03/04 12:22:01;;;;;;;5.95;3.75;;;;;;;0.60;85.40;99456.95;1707516;82;21236;-69
2021/03/04 12:24:29;;;;;;;4.47;2.60;;;;;;;0.58;85.98;99459.95;1719349;82;21642;-69
2021/03/04 12:26:55;;;;;;;;;;;;;;;0.65;85.59;99461.60;1718117;82;21140;-69
2021/03/04 12:29:23;;;;;;;;;;;;;;;0.73;85.69;99460.64;1678472;84;20287;-69
2021/03/04 12:31:50;;;;;;;5.97;2.33;;;;;;;0.82;85.59;99464.42;1677778;83;21268;-69
2021/03/04 12:34:17;;;;;;;4.15;2.20;;;;;;;0.97;85.55;99468.52;1675158;83;21688;-69
2021/03/04 12:36:45;;;;;;;4.78;2.10;;;;;;;1.15;85.52;99466.13;1725448;81;21234;-69
2021/03/04 12:39:14;;;;;;;3.27;1.42;;;;;;;1.31;85.43;99473.62;1676112;84;21278;-70
2021/03/04 12:41:41;;;;;;;8.05;2.25;;;;;;;1.43;85.26;99475.20;1720006;82;21645;-70
2021/03/04 12:44:08;;;;;;;;;;;;;;;1.48;85.03;99468.23;1712004;82;21300;-70
2021/03/04 12:46:35;;;;;;;5.05;2.22;;;;;;;1.38;84.69;99470.55;1683002;82;20232;-70
2021/03/04 12:49:03;;;;;;;6.03;1.85;;;;;;;1.27;84.68;99465.98;1719666;82;21210;-69
2021/03/04 12:51:30;;;;;;;4.62;2.22;;;;;;;1.20;84.72;99469.50;1710738;82;21212;-70
2021/03/04 12:53:57;;;;;;;5.30;1.80;;;;;;;1.13;84.76;99475.61;1707057;82;21859;-70
2021/03/04 12:56:24;;;;;;;6.85;2.35;;;;;;;1.13;84.68;99477.73;1703272;82;22374;-70
2021/03/04 12:58:52;;;;;;;7.25;3.65;;;;;;;1.13;84.94;99481.59;1703153;82;21256;-70
2021/03/04 13:01:19;;;;;;;6.67;3.42;;;;;;;1.16;84.89;99472.99;1700987;82;21219;-70
2021/03/04 13:03:46;;;;;;;8.85;2.90;;;;;;;1.18;84.98;99478.98;1702817;82;21211;-69
2021/03/04 13:06:13;;;;;;;5.10;1.65;;;;;;;1.14;84.52;99482.44;1701718;82;22332;-70
2021/03/04 13:08:40;;;;;;;3.30;1.42;;;;;;;0.97;84.32;99486.06;1718138;81;22128;-69
2021/03/04 13:11:07;;;;;;;6.62;1.80;;;;;;;0.80;84.50;99482.85;1726541;82;21175;-70
2021/03/04 13:13:34;;;;;;;3.77;1.62;;;;;;;0.71;84.82;99491.95;1724011;81;21193;-70
2021/03/04 13:16:01;;;;;;;6.67;2.05;;;;;;;0.68;85.14;99488.14;1724054;81;21188;-69
2021/03/04 13:18:29;;;;;;;5.45;2.85;;;;;;;0.66;85.14;99483.00;1726145;81;21203;-69
2021/03/04 13:20:56;;;;;;;4.58;2.42;;;;;;;0.68;85.09;99490.71;1731675;81;21230;-70
2021/03/04 13:23:24;;;;;;;;;;;;;;;0.71;85.20;99493.24;1733607;81;21679;-70
2021/03/04 13:25:51;;;;;;;15.03;3.80;;;;;;;0.73;85.16;99494.05;1732571;81;20250;-70
2021/03/04 13:28:18;;;;;;;7.90;3.52;;;;;;;0.72;85.12;99500.08;1715144;82;21218;-70
2021/03/04 13:30:45;;;;;;;5.67;3.00;;;;;;;0.65;85.15;99497.58;1710367;82;21451;-69
2021/03/04 13:33:12;;;;;;;5.20;2.40;;;;;;;0.59;84.47;99501.50;1727157;81;21424;-69
2021/03/04 13:35:40;;;;;;;7.85;2.17;;;;;;;0.40;84.60;99524.38;1726116;81;21184;-69
2021/03/04 13:38:07;;;;;;;4.50;2.45;;;;;;;0.34;84.85;99518.02;1725907;81;21160;-69
2021/03/04 13:40:34;;;;;;;7.90;3.65;;;;;;;0.33;84.58;99516.30;1728561;82;21213;-69
2021/03/04 13:43:01;;;;;;;9.20;4.15;;;;;;;0.31;84.79;99514.17;1727313;81;21235;-70
2021/03/04 13:45:28;;;;;;;8.65;3.98;;;;;;;0.35;84.86;99515.86;1730509;81;21210;-70
2021/03/04 13:47:54;;;;;;;6.95;2.70;;;;;;;0.39;84.86;99513.27;1727467;81;21195;-69
2021/03/04 13:50:22;;;;;;;4.62;1.92;;;;;;;0.42;84.64;99525.20;1724531;82;21096;-69
2021/03/04 13:52:49;;;;;;;;;;;;;;;0.41;84.38;99518.36;1734026;81;21923;-69
2021/03/04 13:55:16;;;;;;;5.80;3.12;;;;;;;0.41;84.51;99520.94;1727678;81;20286;-69
2021/03/04 13:57:43;;;;;;;4.70;2.62;;;;;;;0.51;84.86;99517.86;1706347;82;21230;-69
2021/03/04 14:00:11;;;;;;;6.65;3.50;;;;;;;0.53;84.56;99516.95;1728458;81;21605;-70
2021/03/04 14:02:39;;;;;;;9.75;4.28;;;;;;;0.54;84.52;99525.09;1708876;81;21229;-69
2021/03/04 14:05:07;;;;;;;6.40;4.37;;;;;;;0.56;84.49;99518.23;1687112;83;21210;-70
2021/03/04 14:07:34;;;;;;;8.48;4.15;;;;;;;0.55;84.66;99513.94;1710547;81;21155;-70
2021/03/04 14:10:08;;;;;;;4.33;2.60;;;;;;;0.56;84.55;99524.66;1692067;82;21278;-69
2021/03/04 14:12:36;;;;;;;4.55;2.62;;;;;;;0.52;84.50;99524.25;1678033;84;21614;-69
2021/03/04 14:15:05;;;;;;;8.35;2.33;;;;;;;0.52;84.46;99520.84;1657965;84;21666;-70
2021/03/04 14:17:33;;;;;;;6.03;2.65;;;;;;;0.49;84.55;99521.72;1656975;84;21775;-69
2021/03/04 14:20:00;;;;;;;6.85;2.85;;;;;;;0.50;84.71;99515.70;1674714;84;21557;-69
2021/03/04 14:22:27;;;;;;;5.28;2.55;;;;;;;0.46;84.54;99516.61;1678817;84;21227;-69
2021/03/04 14:24:54;;;;;;;6.78;3.60;;;;;;;0.41;84.71;99517.08;1677820;84;21316;-70
2021/03/04 14:27:22;;;;;;;9.70;5.37;;;;;;;0.38;84.83;99517.11;1676399;84;21207;-69
2021/03/04 14:29:49;;;;;;;11.05;4.25;;;;;;;0.39;84.85;99520.97;1673629;84;21775;-69
2021/03/04 14:32:16;;;;;;;14.78;7.47;;;;;;;0.39;84.84;99521.37;1679298;84;21207;-69
2021/03/04 14:35:10;;;;;;;14.80;7.47;;;;;;;0.35;84.80;99519.27;1674182;84;22112;-69
2021/03/04 14:37:47;;;;;;;16.02;8.23;;;;;;;0.28;84.77;99514.20;1674596;83;21207;-69
2021/03/04 14:40:16;;;;;;;12.47;5.65;;;;;;;0.25;84.84;99511.66;1672575;84;21223;-71
2021/03/04 14:42:43;;;;;;;9.75;4.37;;;;;;;0.28;84.95;99514.20;1674807;84;21289;-69
2021/03/04 14:45:12;;;;;;;12.63;6.08;;;;;;;0.33;84.87;99513.29;1674663;84;21229;-70
2021/03/04 14:47:39;;;;;;;10.20;5.85;;;;;;;0.38;84.86;99508.97;1655252;84;22128;-70
2021/03/04 14:50:09;;;;;;;12.37;6.70;;;;;;;0.44;84.84;99515.77;1675688;83;21210;-70
2021/03/04 14:52:36;;;;;;;14.15;6.80;;;;;;;0.46;84.52;99508.06;1691201;83;21265;-69
2021/03/04 14:55:05;;;;;;;12.60;7.22;;;;;;;0.39;84.30;99514.95;1691730;83;21231;-69
2021/03/04 14:57:35;;;;;;;10.40;5.70;;;;;;;0.41;84.63;99518.36;1694523;83;21148;-70
2021/03/04 15:00:06;;;;;;;9.78;4.45;;;;;;;0.43;84.11;99519.21;1693544;83;21350;-70
2021/03/04 15:02:34;;;;;;;9.90;4.58;;;;;;;0.43;84.15;99515.36;1692994;83;21206;-70
2021/03/04 15:05:04;;;;;;;9.20;4.70;;;;;;;0.41;84.04;99513.23;1693160;83;21208;-69
2021/03/04 15:07:31;;;;;;;9.38;5.28;;;;;;;0.42;84.26;99517.48;1691425;83;21231;-68
2021/03/04 15:09:58;;;;;;;8.15;4.10;;;;;;;0.42;84.40;99511.06;1690615;83;21175;-68
2021/03/04 15:12:25;;;;;;;5.15;2.87;;;;;;;0.44;84.27;99515.77;1697422;83;21253;-69
2021/03/04 15:14:52;;;;;;;6.25;3.00;;;;;;;0.38;84.20;99515.83;1674348;83;21073;-69
2021/03/04 15:17:21;;;;;;;10.18;3.52;;;;;;;0.35;84.31;99515.86;1696130;83;21196;-69
2021/03/04 15:19:48;;;;;;;9.00;3.62;;;;;;;0.30;84.26;99516.33;1693489;83;21221;-69
2021/03/04 15:24:52;;;;;;;5.25;2.55;;;;;;;0.18;84.39;99527.13;1834953;77;23411;-68
2021/03/04 15:27:19;;;;;;;10.95;4.83;;;;;;;-0.03;84.46;99534.98;1803295;78;20987;-68
2021/03/04 15:29:46;;;;;;;4.83;2.40;;;;;;;-0.21;84.38;99536.41;1807271;78;21362;-69
2021/03/04 15:32:14;;;;;;;2.52;1.67;;;;;;;-0.36;83.83;99538.66;1798425;78;21046;-68
2021/03/04 15:34:41;;;;;;;;;;;;;;;-0.47;83.61;99536.14;1799967;77;21065;-69